sensor_id;sensor_type;location;lat;lon;timestamp;P1;durP1;ratioP1;P2;durP2;ratioP2
82473;SDS011;72350;53.232;6.556;2023-12-20T00:01:11;17.95;;;6.18;;
82473;SDS011;72350;53.232;6.556;2023-12-20T00:03:39;12.00;;;3.13;;
82473;SDS011;72350;53.232;6.556;2023-12-20T00:06:08;19.88;;;7.30;;
82473;SDS011;72350;53.232;6.556;2023-12-20T00:08:38;20.80;;;6.22;;
82473;SDS011;72350;53.232;6.556;2023-12-20T00:11:06;16.42;;;3.72;;
82473;SDS011;72350;53.232;6.556;2023-12-20T00:13:34;20.40;;;7.55;;
82473;SDS011;72350;53.232;6.556;2023-12-20T00:16:02;18.17;;;5.93;;
82473;SDS011;72350;53.232;6.556;2023-12-20T00:18:30;13.18;;;4.18;;
82473;SDS011;72350;53.232;6.556;2023-12-20T00:20:57;39.65;;;15.60;;
82473;SDS011;72350;53.232;6.556;2023-12-20T00:23:25;25.95;;;11.18;;
82473;SDS011;72350;53.232;6.556;2023-12-20T00:25:54;23.00;;;9.07;;
82473;SDS011;72350;53.232;6.556;2023-12-20T00:28:22;18.95;;;4.18;;
82473;SDS011;72350;53.232;6.556;2023-12-20T00:30:50;21.75;;;8.10;;
82473;SDS011;72350;53.232;6.556;2023-12-20T00:33:18;23.25;;;9.02;;
82473;SDS011;72350;53.232;6.556;2023-12-20T00:35:46;17.23;;;5.63;;
82473;SDS011;72350;53.232;6.556;2023-12-20T00:38:14;19.35;;;5.20;;
82473;SDS011;72350;53.232;6.556;2023-12-20T00:40:42;19.00;;;3.60;;
82473;SDS011;72350;53.232;6.556;2023-12-20T00:43:11;24.73;;;7.10;;
82473;SDS011;72350;53.232;6.556;2023-12-20T00:45:39;17.30;;;4.65;;
82473;SDS011;72350;53.232;6.556;2023-12-20T00:48:07;19.98;;;4.63;;
82473;SDS011;72350;53.232;6.556;2023-12-20T00:50:35;11.85;;;3.40;;
82473;SDS011;72350;53.232;6.556;2023-12-20T00:53:03;20.30;;;5.28;;
82473;SDS011;72350;53.232;6.556;2023-12-20T00:55:32;16.50;;;3.85;;
82473;SDS011;72350;53.232;6.556;2023-12-20T00:58:00;13.77;;;3.13;;
82473;SDS011;72350;53.232;6.556;2023-12-20T01:00:29;9.63;;;3.00;;
82473;SDS011;72350;53.232;6.556;2023-12-20T01:02:57;26.77;;;8.52;;
82473;SDS011;72350;53.232;6.556;2023-12-20T01:05:24;17.40;;;3.83;;
82473;SDS011;72350;53.232;6.556;2023-12-20T01:07:52;16.70;;;4.35;;
82473;SDS011;72350;53.232;6.556;2023-12-20T01:10:20;17.02;;;4.93;;
82473;SDS011;72350;53.232;6.556;2023-12-20T01:12:49;21.75;;;7.45;;
82473;SDS011;72350;53.232;6.556;2023-12-20T01:15:17;19.02;;;5.28;;
82473;SDS011;72350;53.232;6.556;2023-12-20T01:17:46;31.13;;;9.30;;
82473;SDS011;72350;53.232;6.556;2023-12-20T01:20:14;18.88;;;4.95;;
82473;SDS011;72350;53.232;6.556;2023-12-20T01:22:43;21.63;;;5.85;;
82473;SDS011;72350;53.232;6.556;2023-12-20T01:25:12;22.25;;;7.78;;
82473;SDS011;72350;53.232;6.556;2023-12-20T01:27:40;30.92;;;10.75;;
82473;SDS011;72350;53.232;6.556;2023-12-20T01:30:08;14.15;;;3.58;;
82473;SDS011;72350;53.232;6.556;2023-12-20T01:32:37;16.20;;;4.18;;
82473;SDS011;72350;53.232;6.556;2023-12-20T01:35:06;19.25;;;5.13;;
82473;SDS011;72350;53.232;6.556;2023-12-20T01:37:34;19.60;;;5.07;;
82473;SDS011;72350;53.232;6.556;2023-12-20T01:40:02;15.13;;;4.35;;
82473;SDS011;72350;53.232;6.556;2023-12-20T01:42:30;20.20;;;5.13;;
82473;SDS011;72350;53.232;6.556;2023-12-20T01:44:58;20.58;;;5.05;;
82473;SDS011;72350;53.232;6.556;2023-12-20T01:47:26;14.90;;;3.63;;
82473;SDS011;72350;53.232;6.556;2023-12-20T01:49:54;22.35;;;4.47;;
82473;SDS011;72350;53.232;6.556;2023-12-20T01:52:24;19.60;;;3.25;;
82473;SDS011;72350;53.232;6.556;2023-12-20T01:54:53;15.20;;;4.38;;
82473;SDS011;72350;53.232;6.556;2023-12-20T01:57:27;20.05;;;5.10;;
82473;SDS011;72350;53.232;6.556;2023-12-20T01:59:55;15.93;;;4.10;;
82473;SDS011;72350;53.232;6.556;2023-12-20T02:02:24;15.98;;;3.35;;
82473;SDS011;72350;53.232;6.556;2023-12-20T02:04:54;14.77;;;4.07;;
82473;SDS011;72350;53.232;6.556;2023-12-20T02:07:24;20.13;;;4.80;;
82473;SDS011;72350;53.232;6.556;2023-12-20T02:09:52;16.02;;;4.00;;
82473;SDS011;72350;53.232;6.556;2023-12-20T02:12:20;13.85;;;2.75;;
82473;SDS011;72350;53.232;6.556;2023-12-20T02:14:48;20.15;;;2.85;;
82473;SDS011;72350;53.232;6.556;2023-12-20T02:17:16;12.65;;;2.58;;
82473;SDS011;72350;53.232;6.556;2023-12-20T02:19:44;15.35;;;2.92;;
82473;SDS011;72350;53.232;6.556;2023-12-20T02:22:14;12.45;;;2.75;;
82473;SDS011;72350;53.232;6.556;2023-12-20T02:24:41;8.48;;;1.75;;
82473;SDS011;72350;53.232;6.556;2023-12-20T02:27:09;17.55;;;3.72;;
82473;SDS011;72350;53.232;6.556;2023-12-20T02:29:37;13.88;;;3.78;;
82473;SDS011;72350;53.232;6.556;2023-12-20T02:32:05;12.45;;;2.50;;
82473;SDS011;72350;53.232;6.556;2023-12-20T02:34:33;18.00;;;2.97;;
82473;SDS011;72350;53.232;6.556;2023-12-20T02:37:01;14.63;;;3.65;;
82473;SDS011;72350;53.232;6.556;2023-12-20T02:39:30;16.92;;;4.47;;
82473;SDS011;72350;53.232;6.556;2023-12-20T02:41:59;19.88;;;5.70;;
82473;SDS011;72350;53.232;6.556;2023-12-20T02:44:27;25.60;;;4.20;;
82473;SDS011;72350;53.232;6.556;2023-12-20T02:46:55;17.45;;;4.00;;
82473;SDS011;72350;53.232;6.556;2023-12-20T02:49:22;16.23;;;3.95;;
82473;SDS011;72350;53.232;6.556;2023-12-20T02:51:51;20.90;;;3.83;;
82473;SDS011;72350;53.232;6.556;2023-12-20T02:54:19;17.98;;;3.30;;
82473;SDS011;72350;53.232;6.556;2023-12-20T02:56:48;15.35;;;2.72;;
82473;SDS011;72350;53.232;6.556;2023-12-20T02:59:16;26.58;;;4.90;;
82473;SDS011;72350;53.232;6.556;2023-12-20T03:01:44;22.05;;;4.90;;
82473;SDS011;72350;53.232;6.556;2023-12-20T03:04:13;25.83;;;3.42;;
82473;SDS011;72350;53.232;6.556;2023-12-20T03:06:41;23.80;;;3.88;;
82473;SDS011;72350;53.232;6.556;2023-12-20T03:09:09;14.13;;;2.65;;
82473;SDS011;72350;53.232;6.556;2023-12-20T03:11:37;21.35;;;3.20;;
82473;SDS011;72350;53.232;6.556;2023-12-20T03:14:06;21.02;;;3.65;;
82473;SDS011;72350;53.232;6.556;2023-12-20T03:16:33;20.45;;;3.72;;
82473;SDS011;72350;53.232;6.556;2023-12-20T03:19:02;22.30;;;4.38;;
82473;SDS011;72350;53.232;6.556;2023-12-20T03:21:30;26.83;;;3.90;;
82473;SDS011;72350;53.232;6.556;2023-12-20T03:23:58;22.33;;;4.07;;
82473;SDS011;72350;53.232;6.556;2023-12-20T03:26:25;21.73;;;4.72;;
82473;SDS011;72350;53.232;6.556;2023-12-20T03:28:53;25.88;;;4.72;;
82473;SDS011;72350;53.232;6.556;2023-12-20T03:31:23;21.08;;;4.22;;
82473;SDS011;72350;53.232;6.556;2023-12-20T03:33:51;20.40;;;4.28;;
82473;SDS011;72350;53.232;6.556;2023-12-20T03:36:20;28.05;;;5.10;;
82473;SDS011;72350;53.232;6.556;2023-12-20T03:38:48;16.60;;;3.42;;
82473;SDS011;72350;53.232;6.556;2023-12-20T03:41:15;21.35;;;3.30;;
82473;SDS011;72350;53.232;6.556;2023-12-20T03:43:43;16.20;;;3.42;;
82473;SDS011;72350;53.232;6.556;2023-12-20T03:46:11;19.88;;;4.57;;
82473;SDS011;72350;53.232;6.556;2023-12-20T03:48:40;21.42;;;3.10;;
82473;SDS011;72350;53.232;6.556;2023-12-20T03:51:08;19.05;;;3.53;;
82473;SDS011;72350;53.232;6.556;2023-12-20T03:53:36;19.02;;;4.05;;
82473;SDS011;72350;53.232;6.556;2023-12-20T03:56:04;19.55;;;3.65;;
82473;SDS011;72350;53.232;6.556;2023-12-20T03:58:32;17.38;;;3.83;;
82473;SDS011;72350;53.232;6.556;2023-12-20T04:01:00;19.75;;;3.35;;
82473;SDS011;72350;53.232;6.556;2023-12-20T04:03:29;26.00;;;3.90;;
82473;SDS011;72350;53.232;6.556;2023-12-20T04:05:58;27.73;;;4.32;;
82473;SDS011;72350;53.232;6.556;2023-12-20T04:08:26;21.95;;;4.28;;
82473;SDS011;72350;53.232;6.556;2023-12-20T04:10:53;20.73;;;3.63;;
82473;SDS011;72350;53.232;6.556;2023-12-20T04:13:21;28.30;;;4.32;;
82473;SDS011;72350;53.232;6.556;2023-12-20T04:15:49;26.15;;;3.97;;
82473;SDS011;72350;53.232;6.556;2023-12-20T04:18:18;29.08;;;4.55;;
82473;SDS011;72350;53.232;6.556;2023-12-20T04:20:46;19.30;;;3.60;;
82473;SDS011;72350;53.232;6.556;2023-12-20T04:23:15;22.80;;;4.32;;
82473;SDS011;72350;53.232;6.556;2023-12-20T04:25:42;31.95;;;4.18;;
82473;SDS011;72350;53.232;6.556;2023-12-20T04:28:10;20.27;;;4.55;;
82473;SDS011;72350;53.232;6.556;2023-12-20T04:30:38;18.75;;;3.67;;
82473;SDS011;72350;53.232;6.556;2023-12-20T04:33:06;21.17;;;4.10;;
82473;SDS011;72350;53.232;6.556;2023-12-20T04:35:34;25.25;;;5.35;;
82473;SDS011;72350;53.232;6.556;2023-12-20T04:38:02;21.88;;;3.95;;
82473;SDS011;72350;53.232;6.556;2023-12-20T04:40:31;33.58;;;4.18;;
82473;SDS011;72350;53.232;6.556;2023-12-20T04:42:59;19.90;;;3.80;;
82473;SDS011;72350;53.232;6.556;2023-12-20T04:45:26;26.38;;;3.95;;
82473;SDS011;72350;53.232;6.556;2023-12-20T04:47:55;26.50;;;4.25;;
82473;SDS011;72350;53.232;6.556;2023-12-20T04:50:23;28.38;;;4.00;;
82473;SDS011;72350;53.232;6.556;2023-12-20T04:52:50;23.15;;;3.85;;
82473;SDS011;72350;53.232;6.556;2023-12-20T04:55:18;25.23;;;4.28;;
82473;SDS011;72350;53.232;6.556;2023-12-20T04:57:48;33.05;;;4.22;;
82473;SDS011;72350;53.232;6.556;2023-12-20T05:00:16;21.80;;;3.67;;
82473;SDS011;72350;53.232;6.556;2023-12-20T05:02:44;23.83;;;4.80;;
82473;SDS011;72350;53.232;6.556;2023-12-20T05:05:12;27.65;;;4.53;;
82473;SDS011;72350;53.232;6.556;2023-12-20T05:07:41;23.40;;;4.75;;
82473;SDS011;72350;53.232;6.556;2023-12-20T05:10:10;24.98;;;4.80;;
82473;SDS011;72350;53.232;6.556;2023-12-20T05:12:37;38.67;;;13.02;;
82473;SDS011;72350;53.232;6.556;2023-12-20T05:15:07;33.67;;;7.80;;
82473;SDS011;72350;53.232;6.556;2023-12-20T05:17:35;37.72;;;10.10;;
82473;SDS011;72350;53.232;6.556;2023-12-20T05:20:04;36.67;;;9.15;;
82473;SDS011;72350;53.232;6.556;2023-12-20T05:22:32;36.75;;;11.60;;
82473;SDS011;72350;53.232;6.556;2023-12-20T05:25:00;44.03;;;13.13;;
82473;SDS011;72350;53.232;6.556;2023-12-20T05:27:28;59.15;;;19.08;;
82473;SDS011;72350;53.232;6.556;2023-12-20T05:29:56;49.28;;;16.00;;
82473;SDS011;72350;53.232;6.556;2023-12-20T05:32:25;55.17;;;15.63;;
82473;SDS011;72350;53.232;6.556;2023-12-20T05:34:53;47.10;;;14.68;;
82473;SDS011;72350;53.232;6.556;2023-12-20T05:37:21;34.25;;;7.32;;
82473;SDS011;72350;53.232;6.556;2023-12-20T05:39:49;63.70;;;22.63;;
82473;SDS011;72350;53.232;6.556;2023-12-20T05:42:17;37.03;;;10.75;;
82473;SDS011;72350;53.232;6.556;2023-12-20T05:44:44;38.97;;;10.18;;
82473;SDS011;72350;53.232;6.556;2023-12-20T05:47:13;57.00;;;17.65;;
82473;SDS011;72350;53.232;6.556;2023-12-20T05:49:43;33.92;;;10.48;;
82473;SDS011;72350;53.232;6.556;2023-12-20T05:52:11;40.60;;;14.20;;
82473;SDS011;72350;53.232;6.556;2023-12-20T05:54:39;36.40;;;12.82;;
82473;SDS011;72350;53.232;6.556;2023-12-20T05:57:07;55.17;;;20.15;;
82473;SDS011;72350;53.232;6.556;2023-12-20T05:59:34;105.28;;;47.17;;
82473;SDS011;72350;53.232;6.556;2023-12-20T06:02:03;37.72;;;11.50;;
82473;SDS011;72350;53.232;6.556;2023-12-20T06:04:31;91.60;;;36.03;;
82473;SDS011;72350;53.232;6.556;2023-12-20T06:07:00;50.33;;;18.10;;
82473;SDS011;72350;53.232;6.556;2023-12-20T06:09:28;42.42;;;13.18;;
82473;SDS011;72350;53.232;6.556;2023-12-20T06:11:57;29.05;;;7.43;;
82473;SDS011;72350;53.232;6.556;2023-12-20T06:14:25;84.63;;;36.45;;
82473;SDS011;72350;53.232;6.556;2023-12-20T06:16:53;117.85;;;50.65;;
82473;SDS011;72350;53.232;6.556;2023-12-20T06:19:21;126.80;;;55.13;;
82473;SDS011;72350;53.232;6.556;2023-12-20T06:21:49;68.53;;;26.77;;
82473;SDS011;72350;53.232;6.556;2023-12-20T06:24:18;51.88;;;18.98;;
82473;SDS011;72350;53.232;6.556;2023-12-20T06:26:46;41.78;;;12.75;;
82473;SDS011;72350;53.232;6.556;2023-12-20T06:29:14;51.92;;;15.77;;
82473;SDS011;72350;53.232;6.556;2023-12-20T06:31:41;45.35;;;17.98;;
82473;SDS011;72350;53.232;6.556;2023-12-20T06:34:10;110.50;;;45.03;;
82473;SDS011;72350;53.232;6.556;2023-12-20T06:36:37;88.43;;;36.60;;
82473;SDS011;72350;53.232;6.556;2023-12-20T06:39:05;62.17;;;20.50;;
82473;SDS011;72350;53.232;6.556;2023-12-20T06:41:34;102.80;;;39.00;;
82473;SDS011;72350;53.232;6.556;2023-12-20T06:44:02;29.15;;;8.57;;
82473;SDS011;72350;53.232;6.556;2023-12-20T06:46:30;83.28;;;33.42;;
82473;SDS011;72350;53.232;6.556;2023-12-20T06:48:58;101.85;;;43.35;;
82473;SDS011;72350;53.232;6.556;2023-12-20T06:51:26;88.65;;;31.85;;
82473;SDS011;72350;53.232;6.556;2023-12-20T06:53:54;86.32;;;35.92;;
82473;SDS011;72350;53.232;6.556;2023-12-20T06:56:22;65.00;;;28.05;;
82473;SDS011;72350;53.232;6.556;2023-12-20T06:58:51;62.83;;;17.05;;
82473;SDS011;72350;53.232;6.556;2023-12-20T07:01:19;67.10;;;30.17;;
82473;SDS011;72350;53.232;6.556;2023-12-20T07:03:47;85.20;;;37.67;;
82473;SDS011;72350;53.232;6.556;2023-12-20T07:06:14;63.95;;;25.67;;
82473;SDS011;72350;53.232;6.556;2023-12-20T07:08:43;53.50;;;17.50;;
82473;SDS011;72350;53.232;6.556;2023-12-20T07:11:11;37.88;;;11.77;;
82473;SDS011;72350;53.232;6.556;2023-12-20T07:13:39;41.10;;;13.23;;
82473;SDS011;72350;53.232;6.556;2023-12-20T07:16:08;97.70;;;40.35;;
82473;SDS011;72350;53.232;6.556;2023-12-20T07:18:37;48.17;;;16.00;;
82473;SDS011;72350;53.232;6.556;2023-12-20T07:21:04;38.35;;;10.85;;
82473;SDS011;72350;53.232;6.556;2023-12-20T07:23:34;66.47;;;26.23;;
82473;SDS011;72350;53.232;6.556;2023-12-20T07:26:02;41.97;;;14.13;;
82473;SDS011;72350;53.232;6.556;2023-12-20T07:28:30;36.88;;;10.30;;
82473;SDS011;72350;53.232;6.556;2023-12-20T07:30:58;30.17;;;8.40;;
82473;SDS011;72350;53.232;6.556;2023-12-20T07:33:27;46.78;;;16.90;;
82473;SDS011;72350;53.232;6.556;2023-12-20T07:36:03;44.60;;;14.60;;
82473;SDS011;72350;53.232;6.556;2023-12-20T07:38:31;36.55;;;9.88;;
82473;SDS011;72350;53.232;6.556;2023-12-20T07:40:59;42.85;;;14.70;;
82473;SDS011;72350;53.232;6.556;2023-12-20T07:43:27;36.45;;;6.40;;
82473;SDS011;72350;53.232;6.556;2023-12-20T07:45:55;36.53;;;9.35;;
82473;SDS011;72350;53.232;6.556;2023-12-20T07:48:23;60.38;;;22.35;;
82473;SDS011;72350;53.232;6.556;2023-12-20T07:50:52;34.28;;;8.02;;
82473;SDS011;72350;53.232;6.556;2023-12-20T07:53:20;52.00;;;16.50;;
82473;SDS011;72350;53.232;6.556;2023-12-20T07:55:48;50.67;;;16.98;;
82473;SDS011;72350;53.232;6.556;2023-12-20T07:58:15;36.03;;;8.07;;
82473;SDS011;72350;53.232;6.556;2023-12-20T08:00:43;31.10;;;8.60;;
82473;SDS011;72350;53.232;6.556;2023-12-20T08:03:11;40.58;;;8.80;;
82473;SDS011;72350;53.232;6.556;2023-12-20T08:05:39;37.15;;;7.40;;
82473;SDS011;72350;53.232;6.556;2023-12-20T08:08:09;39.65;;;8.88;;
82473;SDS011;72350;53.232;6.556;2023-12-20T08:10:37;34.50;;;9.38;;
82473;SDS011;72350;53.232;6.556;2023-12-20T08:13:05;34.28;;;8.95;;
82473;SDS011;72350;53.232;6.556;2023-12-20T08:15:33;29.45;;;7.22;;
82473;SDS011;72350;53.232;6.556;2023-12-20T08:18:01;35.17;;;9.57;;
82473;SDS011;72350;53.232;6.556;2023-12-20T08:20:28;32.65;;;10.27;;
82473;SDS011;72350;53.232;6.556;2023-12-20T08:23:06;31.38;;;7.07;;
82473;SDS011;72350;53.232;6.556;2023-12-20T08:25:35;37.33;;;9.48;;
82473;SDS011;72350;53.232;6.556;2023-12-20T08:28:03;27.45;;;8.80;;
82473;SDS011;72350;53.232;6.556;2023-12-20T08:30:31;31.98;;;9.32;;
82473;SDS011;72350;53.232;6.556;2023-12-20T08:33:00;23.25;;;4.95;;
82473;SDS011;72350;53.232;6.556;2023-12-20T08:35:29;27.50;;;5.15;;
82473;SDS011;72350;53.232;6.556;2023-12-20T08:37:57;22.85;;;6.50;;
82473;SDS011;72350;53.232;6.556;2023-12-20T08:40:24;14.48;;;3.60;;
82473;SDS011;72350;53.232;6.556;2023-12-20T08:42:54;13.93;;;4.05;;
82473;SDS011;72350;53.232;6.556;2023-12-20T08:45:21;13.43;;;3.25;;
82473;SDS011;72350;53.232;6.556;2023-12-20T08:47:50;16.30;;;4.28;;
82473;SDS011;72350;53.232;6.556;2023-12-20T08:50:18;19.52;;;6.03;;
82473;SDS011;72350;53.232;6.556;2023-12-20T08:52:46;21.55;;;7.75;;
82473;SDS011;72350;53.232;6.556;2023-12-20T08:55:14;17.65;;;3.65;;
82473;SDS011;72350;53.232;6.556;2023-12-20T08:57:44;29.63;;;5.97;;
82473;SDS011;72350;53.232;6.556;2023-12-20T09:00:14;11.15;;;2.95;;
82473;SDS011;72350;53.232;6.556;2023-12-20T09:02:42;16.45;;;2.55;;
82473;SDS011;72350;53.232;6.556;2023-12-20T09:05:10;24.60;;;6.50;;
82473;SDS011;72350;53.232;6.556;2023-12-20T09:07:38;18.92;;;5.72;;
82473;SDS011;72350;53.232;6.556;2023-12-20T09:10:06;15.95;;;3.40;;
82473;SDS011;72350;53.232;6.556;2023-12-20T09:12:35;17.50;;;3.38;;
82473;SDS011;72350;53.232;6.556;2023-12-20T09:15:06;14.90;;;2.42;;
82473;SDS011;72350;53.232;6.556;2023-12-20T09:17:35;17.02;;;3.22;;
82473;SDS011;72350;53.232;6.556;2023-12-20T09:20:04;23.45;;;3.85;;
82473;SDS011;72350;53.232;6.556;2023-12-20T09:22:34;17.15;;;3.83;;
82473;SDS011;72350;53.232;6.556;2023-12-20T09:25:02;16.55;;;3.25;;
82473;SDS011;72350;53.232;6.556;2023-12-20T09:27:30;12.30;;;1.75;;
82473;SDS011;72350;53.232;6.556;2023-12-20T09:29:58;11.95;;;1.60;;
82473;SDS011;72350;53.232;6.556;2023-12-20T09:32:25;13.77;;;2.00;;
82473;SDS011;72350;53.232;6.556;2023-12-20T09:34:55;8.85;;;1.98;;
82473;SDS011;72350;53.232;6.556;2023-12-20T09:37:25;11.38;;;1.70;;
82473;SDS011;72350;53.232;6.556;2023-12-20T09:39:53;7.28;;;1.35;;
82473;SDS011;72350;53.232;6.556;2023-12-20T09:42:24;8.88;;;2.10;;
82473;SDS011;72350;53.232;6.556;2023-12-20T09:44:57;7.95;;;1.38;;
82473;SDS011;72350;53.232;6.556;2023-12-20T09:47:29;11.27;;;2.55;;
82473;SDS011;72350;53.232;6.556;2023-12-20T09:49:59;9.02;;;1.85;;
82473;SDS011;72350;53.232;6.556;2023-12-20T09:52:27;6.43;;;1.48;;
82473;SDS011;72350;53.232;6.556;2023-12-20T09:54:56;13.45;;;2.72;;
82473;SDS011;72350;53.232;6.556;2023-12-20T09:57:25;9.15;;;1.83;;
82473;SDS011;72350;53.232;6.556;2023-12-20T09:59:52;10.13;;;1.60;;
82473;SDS011;72350;53.232;6.556;2023-12-20T10:02:20;10.65;;;1.70;;
82473;SDS011;72350;53.232;6.556;2023-12-20T10:04:54;12.00;;;2.58;;
82473;SDS011;72350;53.232;6.556;2023-12-20T10:07:23;9.43;;;2.33;;
82473;SDS011;72350;53.232;6.556;2023-12-20T10:09:51;10.20;;;1.80;;
82473;SDS011;72350;53.232;6.556;2023-12-20T10:12:22;61.08;;;9.07;;
82473;SDS011;72350;53.232;6.556;2023-12-20T10:14:50;42.20;;;5.68;;
82473;SDS011;72350;53.232;6.556;2023-12-20T10:17:18;18.15;;;3.30;;
82473;SDS011;72350;53.232;6.556;2023-12-20T10:19:46;20.85;;;3.17;;
82473;SDS011;72350;53.232;6.556;2023-12-20T10:22:15;20.73;;;2.03;;
82473;SDS011;72350;53.232;6.556;2023-12-20T10:24:44;30.00;;;3.55;;
82473;SDS011;72350;53.232;6.556;2023-12-20T10:27:13;25.02;;;3.28;;
82473;SDS011;72350;53.232;6.556;2023-12-20T10:29:41;16.25;;;2.47;;
82473;SDS011;72350;53.232;6.556;2023-12-20T10:32:22;18.95;;;3.28;;
82473;SDS011;72350;53.232;6.556;2023-12-20T10:34:51;16.60;;;3.08;;
82473;SDS011;72350;53.232;6.556;2023-12-20T10:37:19;13.10;;;3.80;;
82473;SDS011;72350;53.232;6.556;2023-12-20T10:39:49;12.55;;;1.83;;
82473;SDS011;72350;53.232;6.556;2023-12-20T10:42:19;21.10;;;3.90;;
82473;SDS011;72350;53.232;6.556;2023-12-20T10:44:49;14.10;;;2.55;;
82473;SDS011;72350;53.232;6.556;2023-12-20T10:47:17;16.15;;;2.72;;
82473;SDS011;72350;53.232;6.556;2023-12-20T10:49:46;12.10;;;2.75;;
82473;SDS011;72350;53.232;6.556;2023-12-20T10:52:14;14.77;;;2.38;;
82473;SDS011;72350;53.232;6.556;2023-12-20T10:54:44;13.68;;;2.17;;
82473;SDS011;72350;53.232;6.556;2023-12-20T10:57:14;14.40;;;2.35;;
82473;SDS011;72350;53.232;6.556;2023-12-20T10:59:45;15.45;;;2.45;;
82473;SDS011;72350;53.232;6.556;2023-12-20T11:02:16;13.93;;;2.03;;
82473;SDS011;72350;53.232;6.556;2023-12-20T11:04:47;12.70;;;2.22;;
82473;SDS011;72350;53.232;6.556;2023-12-20T11:07:22;12.98;;;2.97;;
82473;SDS011;72350;53.232;6.556;2023-12-20T11:09:57;23.23;;;3.22;;
82473;SDS011;72350;53.232;6.556;2023-12-20T11:12:31;11.45;;;2.22;;
82473;SDS011;72350;53.232;6.556;2023-12-20T11:15:04;19.00;;;3.47;;
82473;SDS011;72350;53.232;6.556;2023-12-20T11:17:34;27.60;;;3.70;;
82473;SDS011;72350;53.232;6.556;2023-12-20T11:20:05;22.25;;;5.45;;
82473;SDS011;72350;53.232;6.556;2023-12-20T11:22:37;29.90;;;5.32;;
82473;SDS011;72350;53.232;6.556;2023-12-20T11:25:09;35.67;;;3.75;;
82473;SDS011;72350;53.232;6.556;2023-12-20T11:27:41;22.20;;;3.42;;
82473;SDS011;72350;53.232;6.556;2023-12-20T11:30:13;12.85;;;2.40;;
82473;SDS011;72350;53.232;6.556;2023-12-20T11:32:41;11.38;;;2.28;;
82473;SDS011;72350;53.232;6.556;2023-12-20T11:35:19;19.52;;;3.25;;
82473;SDS011;72350;53.232;6.556;2023-12-20T11:37:47;17.95;;;2.85;;
82473;SDS011;72350;53.232;6.556;2023-12-20T11:40:16;19.38;;;2.70;;
82473;SDS011;72350;53.232;6.556;2023-12-20T11:42:48;15.25;;;2.50;;
82473;SDS011;72350;53.232;6.556;2023-12-20T11:45:18;14.63;;;2.85;;
82473;SDS011;72350;53.232;6.556;2023-12-20T11:47:49;16.65;;;3.17;;
82473;SDS011;72350;53.232;6.556;2023-12-20T11:50:18;18.33;;;2.95;;
82473;SDS011;72350;53.232;6.556;2023-12-20T11:52:47;18.08;;;3.03;;
82473;SDS011;72350;53.232;6.556;2023-12-20T11:55:16;18.02;;;3.08;;
82473;SDS011;72350;53.232;6.556;2023-12-20T11:57:46;15.30;;;3.28;;
82473;SDS011;72350;53.232;6.556;2023-12-20T12:00:15;22.00;;;2.47;;
82473;SDS011;72350;53.232;6.556;2023-12-20T12:02:43;22.20;;;3.60;;
82473;SDS011;72350;53.232;6.556;2023-12-20T12:05:22;14.90;;;2.70;;
82473;SDS011;72350;53.232;6.556;2023-12-20T12:07:51;22.30;;;3.22;;
82473;SDS011;72350;53.232;6.556;2023-12-20T12:10:20;18.00;;;2.60;;
82473;SDS011;72350;53.232;6.556;2023-12-20T12:12:49;14.93;;;2.97;;
82473;SDS011;72350;53.232;6.556;2023-12-20T12:15:17;21.73;;;3.42;;
82473;SDS011;72350;53.232;6.556;2023-12-20T12:17:52;21.08;;;3.00;;
82473;SDS011;72350;53.232;6.556;2023-12-20T12:20:20;14.15;;;3.03;;
82473;SDS011;72350;53.232;6.556;2023-12-20T12:22:57;20.17;;;2.80;;
82473;SDS011;72350;53.232;6.556;2023-12-20T12:25:25;13.75;;;3.08;;
82473;SDS011;72350;53.232;6.556;2023-12-20T12:27:55;12.20;;;2.28;;
82473;SDS011;72350;53.232;6.556;2023-12-20T12:30:23;20.13;;;2.60;;
82473;SDS011;72350;53.232;6.556;2023-12-20T12:32:55;14.05;;;2.50;;
82473;SDS011;72350;53.232;6.556;2023-12-20T12:35:24;13.57;;;2.22;;
82473;SDS011;72350;53.232;6.556;2023-12-20T12:37:52;14.23;;;2.53;;
82473;SDS011;72350;53.232;6.556;2023-12-20T12:40:20;12.23;;;2.65;;
82473;SDS011;72350;53.232;6.556;2023-12-20T12:42:48;15.25;;;2.08;;
82473;SDS011;72350;53.232;6.556;2023-12-20T12:45:17;11.60;;;2.60;;
82473;SDS011;72350;53.232;6.556;2023-12-20T12:47:45;13.82;;;2.10;;
82473;SDS011;72350;53.232;6.556;2023-12-20T12:50:14;14.02;;;2.33;;
82473;SDS011;72350;53.232;6.556;2023-12-20T12:52:42;16.77;;;2.85;;
82473;SDS011;72350;53.232;6.556;2023-12-20T12:55:10;31.38;;;3.88;;
82473;SDS011;72350;53.232;6.556;2023-12-20T12:57:38;13.52;;;2.00;;
82473;SDS011;72350;53.232;6.556;2023-12-20T13:00:06;18.45;;;2.95;;
82473;SDS011;72350;53.232;6.556;2023-12-20T13:02:37;15.15;;;2.78;;
82473;SDS011;72350;53.232;6.556;2023-12-20T13:05:08;8.23;;;2.40;;
82473;SDS011;72350;53.232;6.556;2023-12-20T13:07:36;17.08;;;2.67;;
82473;SDS011;72350;53.232;6.556;2023-12-20T13:10:06;14.13;;;2.38;;
82473;SDS011;72350;53.232;6.556;2023-12-20T13:12:34;16.30;;;2.40;;
82473;SDS011;72350;53.232;6.556;2023-12-20T13:15:02;15.43;;;2.50;;
82473;SDS011;72350;53.232;6.556;2023-12-20T13:17:31;11.40;;;2.25;;
82473;SDS011;72350;53.232;6.556;2023-12-20T13:20:00;16.80;;;2.17;;
82473;SDS011;72350;53.232;6.556;2023-12-20T13:22:29;8.85;;;1.73;;
82473;SDS011;72350;53.232;6.556;2023-12-20T13:24:57;12.63;;;1.85;;
82473;SDS011;72350;53.232;6.556;2023-12-20T13:27:25;24.27;;;3.90;;
82473;SDS011;72350;53.232;6.556;2023-12-20T13:29:54;14.98;;;3.13;;
82473;SDS011;72350;53.232;6.556;2023-12-20T13:32:22;17.42;;;2.35;;
82473;SDS011;72350;53.232;6.556;2023-12-20T13:34:50;19.23;;;2.88;;
82473;SDS011;72350;53.232;6.556;2023-12-20T13:37:19;12.52;;;2.20;;
82473;SDS011;72350;53.232;6.556;2023-12-20T13:39:47;14.68;;;2.88;;
82473;SDS011;72350;53.232;6.556;2023-12-20T13:42:15;13.40;;;1.95;;
82473;SDS011;72350;53.232;6.556;2023-12-20T13:44:43;11.25;;;1.83;;
82473;SDS011;72350;53.232;6.556;2023-12-20T13:47:11;9.98;;;1.80;;
82473;SDS011;72350;53.232;6.556;2023-12-20T13:49:38;9.98;;;1.73;;
82473;SDS011;72350;53.232;6.556;2023-12-20T13:52:06;15.68;;;2.53;;
82473;SDS011;72350;53.232;6.556;2023-12-20T13:54:35;12.80;;;2.05;;
82473;SDS011;72350;53.232;6.556;2023-12-20T13:57:04;13.68;;;1.88;;
82473;SDS011;72350;53.232;6.556;2023-12-20T13:59:47;9.35;;;1.45;;
82473;SDS011;72350;53.232;6.556;2023-12-20T14:02:15;9.68;;;1.52;;
82473;SDS011;72350;53.232;6.556;2023-12-20T14:04:43;17.23;;;1.67;;
82473;SDS011;72350;53.232;6.556;2023-12-20T14:07:11;13.02;;;1.95;;
82473;SDS011;72350;53.232;6.556;2023-12-20T14:09:40;7.43;;;1.70;;
82473;SDS011;72350;53.232;6.556;2023-12-20T14:12:13;9.30;;;1.25;;
82473;SDS011;72350;53.232;6.556;2023-12-20T14:14:41;8.52;;;1.38;;
82473;SDS011;72350;53.232;6.556;2023-12-20T14:17:11;4.93;;;1.27;;
82473;SDS011;72350;53.232;6.556;2023-12-20T14:19:39;12.55;;;1.50;;
82473;SDS011;72350;53.232;6.556;2023-12-20T14:22:07;10.45;;;1.92;;
82473;SDS011;72350;53.232;6.556;2023-12-20T14:24:35;14.23;;;1.45;;
82473;SDS011;72350;53.232;6.556;2023-12-20T14:27:04;9.10;;;1.58;;
82473;SDS011;72350;53.232;6.556;2023-12-20T14:29:32;7.65;;;1.77;;
82473;SDS011;72350;53.232;6.556;2023-12-20T14:31:59;5.80;;;1.17;;
82473;SDS011;72350;53.232;6.556;2023-12-20T14:34:29;7.40;;;1.40;;
82473;SDS011;72350;53.232;6.556;2023-12-20T14:36:57;6.07;;;0.95;;
82473;SDS011;72350;53.232;6.556;2023-12-20T14:39:25;10.18;;;1.40;;
82473;SDS011;72350;53.232;6.556;2023-12-20T14:41:53;7.32;;;1.80;;